createdAt,value
2022-09-24T00:01:39.785Z,101034.53
2022-09-24T00:04:11.416Z,101037.69
2022-09-24T00:06:45.147Z,101037.38
2022-09-24T00:09:14.840Z,101043.22
2022-09-24T00:11:45.859Z,101034.00
2022-09-24T00:14:13.912Z,101038.94
2022-09-24T00:16:42.575Z,101040.56
2022-09-24T00:19:12.508Z,101044.53
2022-09-24T00:21:41.002Z,101040.47
2022-09-24T00:24:33.511Z,101030.94
2022-09-24T00:27:03.066Z,101030.13
2022-09-24T00:29:33.838Z,101027.34
2022-09-24T00:32:01.484Z,101027.91
2022-09-24T00:34:28.824Z,101017.00
2022-09-24T00:36:55.706Z,101028.06
2022-09-24T00:39:22.690Z,101024.56
2022-09-24T00:41:50.225Z,101021.53
2022-09-24T00:44:45.008Z,101022.59
2022-09-24T00:47:17.430Z,101015.03
2022-09-24T00:49:48.026Z,101005.81
2022-09-24T00:52:16.848Z,101013.28
2022-09-24T00:54:46.165Z,101007.34
2022-09-24T00:57:13.917Z,101002.66
2022-09-24T00:59:43.113Z,100995.69
2022-09-24T01:02:10.087Z,101008.03
2022-09-24T01:04:37.147Z,100996.72
2022-09-24T01:07:04.258Z,100997.78
2022-09-24T01:09:31.428Z,100997.69
2022-09-24T01:12:20.553Z,101005.81
2022-09-24T01:15:05.685Z,100990.47
2022-09-24T01:18:02.231Z,100991.84
2022-09-24T01:20:57.480Z,101002.00
2022-09-24T01:23:52.460Z,100996.06
2022-09-24T01:27:01.397Z,100992.56
2022-09-24T01:29:52.549Z,100995.47
2022-09-24T01:32:49.708Z,100998.16
2022-09-24T01:35:24.282Z,100982.06
2022-09-24T01:38:09.960Z,100986.97
2022-09-24T01:40:38.903Z,100984.28
2022-09-24T01:43:08.951Z,100976.00
2022-09-24T01:45:38.734Z,100967.38
2022-09-24T01:48:07.268Z,100979.59
2022-09-24T01:51:06.012Z,100971.31
2022-09-24T01:53:42.681Z,100970.28
2022-09-24T01:56:41.248Z,100969.94
2022-09-24T01:59:18.171Z,100960.97
2022-09-24T02:01:55.447Z,100967.72
2022-09-24T02:04:26.005Z,100961.66
2022-09-24T02:07:01.961Z,100961.53
2022-09-24T02:09:36.980Z,100960.00
2022-09-24T02:12:17.627Z,100947.66
2022-09-24T02:14:50.776Z,100961.16
2022-09-24T02:17:20.921Z,100950.19
2022-09-24T02:19:50.214Z,100954.03
2022-09-24T02:22:17.891Z,100955.41
2022-09-24T02:24:58.424Z,100947.63
2022-09-24T02:27:28.742Z,100954.38
2022-09-24T02:29:59.892Z,100945.84
2022-09-24T02:32:31.239Z,100956.41
2022-09-24T02:35:06.123Z,100950.25
2022-09-24T02:37:40.747Z,100941.63
2022-09-24T02:40:12.056Z,100950.34
2022-09-24T02:42:41.204Z,100958.16
2022-09-24T02:45:09.804Z,100946.28
2022-09-24T02:47:37.013Z,100938.56
2022-09-24T02:50:04.856Z,100940.75
2022-09-24T02:52:32.011Z,100940.28
2022-09-24T02:54:59.016Z,100933.03
2022-09-24T02:57:25.900Z,100927.44
2022-09-24T02:59:52.883Z,100946.28
2022-09-24T03:02:19.819Z,100929.72
2022-09-24T03:04:47.240Z,100927.03
2022-09-24T03:07:14.994Z,100918.66
2022-09-24T03:09:42.345Z,100923.06
2022-09-24T03:12:09.585Z,100919.31
2022-09-24T03:14:36.470Z,100931.75
2022-09-24T03:17:03.477Z,100925.59
2022-09-24T03:19:30.439Z,100929.88
2022-09-24T03:21:57.569Z,100922.66
2022-09-24T03:24:24.950Z,100915.66
2022-09-24T03:26:52.087Z,100917.44
2022-09-24T03:29:39.038Z,100916.22
2022-09-24T03:32:06.113Z,100919.06
2022-09-24T03:34:33.110Z,100929.56
2022-09-24T03:37:00.067Z,100919.66
2022-09-24T03:39:27.626Z,100907.19
2022-09-24T03:41:54.402Z,100911.59
2022-09-24T03:44:21.523Z,100905.09
2022-09-24T03:46:50.086Z,100923.38
2022-09-24T03:49:17.526Z,100920.94
2022-09-24T03:51:44.574Z,100919.56
2022-09-24T03:54:12.540Z,100931.91
2022-09-24T03:56:39.656Z,100920.28
2022-09-24T03:59:06.949Z,100927.75
2022-09-24T04:01:37.142Z,100914.59
2022-09-24T04:04:05.169Z,100916.69
2022-09-24T04:06:32.057Z,100914.34
2022-09-24T04:09:00.288Z,100901.41
2022-09-24T04:11:27.501Z,100910.03
2022-09-24T04:13:54.398Z,100896.31
2022-09-24T04:16:21.787Z,100908.16
2022-09-24T04:18:48.881Z,100904.19
2022-09-24T04:21:15.865Z,100903.94
2022-09-24T04:23:43.179Z,100898.00
2022-09-24T04:26:10.354Z,100898.59
2022-09-24T04:28:37.368Z,100894.75
2022-09-24T04:31:05.159Z,100895.34
2022-09-24T04:33:32.129Z,100903.94
2022-09-24T04:35:59.382Z,100896.38
2022-09-24T04:38:26.335Z,100903.63
2022-09-24T04:40:53.286Z,100896.38
2022-09-24T04:43:20.133Z,100893.22
2022-09-24T04:45:47.393Z,100889.22
2022-09-24T04:48:14.467Z,100899.97
2022-09-24T04:50:45.909Z,100890.88
2022-09-24T04:53:14.106Z,100899.47
2022-09-24T04:55:41.908Z,100893.31
2022-09-24T04:58:09.758Z,100899.72
2022-09-24T05:00:36.831Z,100903.78
2022-09-24T05:03:04.237Z,100892.81
2022-09-24T05:05:33.477Z,100897.94
2022-09-24T05:08:01.509Z,100897.94
2022-09-24T05:10:31.298Z,100897.13
2022-09-24T05:12:58.441Z,100907.38
2022-09-24T05:15:25.326Z,100902.00
2022-09-24T05:17:52.541Z,100904.19
2022-09-24T05:20:19.404Z,100906.63
2022-09-24T05:22:49.437Z,100910.94
2022-09-24T05:25:20.427Z,100909.69
2022-09-24T05:27:50.201Z,100906.50
2022-09-24T05:30:19.351Z,100911.88
2022-09-24T05:32:49.577Z,100913.50
2022-09-24T05:35:16.575Z,100917.06
2022-09-24T05:37:44.051Z,100924.88
2022-09-24T05:40:29.787Z,100913.66
2022-09-24T05:43:02.591Z,100907.22
2022-09-24T05:45:31.477Z,100900.06
2022-09-24T05:48:00.133Z,100892.34
2022-09-24T05:50:27.748Z,100908.53
2022-09-24T05:52:56.373Z,100897.28
2022-09-24T05:55:23.153Z,100894.69
2022-09-24T05:57:50.193Z,100889.31
2022-09-24T06:00:17.082Z,100895.56
2022-09-24T06:02:44.499Z,100899.38
2022-09-24T06:05:12.592Z,100908.56
2022-09-24T06:07:39.648Z,100915.66
2022-09-24T06:10:07.466Z,100917.06
2022-09-24T06:12:35.147Z,100916.63
2022-09-24T06:15:02.744Z,100928.75
2022-09-24T06:17:30.218Z,100921.88
2022-09-24T06:19:58.069Z,100919.50
2022-09-24T06:22:28.329Z,100923.13
2022-09-24T06:24:56.052Z,100917.81
2022-09-24T06:27:22.902Z,100923.56
2022-09-24T06:29:49.932Z,100929.56
2022-09-24T06:32:18.831Z,100917.25
2022-09-24T06:34:45.748Z,100922.97
2022-09-24T06:37:12.709Z,100916.84
2022-09-24T06:39:39.765Z,100922.03
2022-09-24T06:42:07.260Z,100915.41
2022-09-24T06:44:35.447Z,100923.28
2022-09-24T06:47:02.702Z,100922.00
2022-09-24T06:49:33.724Z,100920.72
2022-09-24T06:52:01.489Z,100921.03
2022-09-24T06:54:30.430Z,100924.19
2022-09-24T06:56:57.253Z,100915.91
2022-09-24T06:59:24.234Z,100913.06
2022-09-24T07:01:51.065Z,100918.22
2022-09-24T07:04:18.032Z,100919.09
2022-09-24T07:07:03.331Z,100918.88
2022-09-24T07:09:30.375Z,100925.09
2022-09-24T07:11:58.855Z,100924.84
2022-09-24T07:14:25.873Z,100924.59
2022-09-24T07:16:53.885Z,100920.81
2022-09-24T07:19:21.163Z,100931.91
2022-09-24T07:21:48.049Z,100923.25
2022-09-24T07:24:15.067Z,100931.63
2022-09-24T07:26:42.334Z,100938.94
2022-09-24T07:29:09.354Z,100935.75
2022-09-24T07:31:36.760Z,100941.97
2022-09-24T07:34:03.632Z,100939.88
2022-09-24T07:36:31.944Z,100935.31
2022-09-24T07:38:58.817Z,100940.25
2022-09-24T07:41:25.840Z,100928.69
2022-09-24T07:43:55.610Z,100930.38
2022-09-24T07:46:22.545Z,100928.00
2022-09-24T07:49:14.857Z,100931.84
2022-09-24T07:51:42.498Z,100939.97
2022-09-24T07:54:13.859Z,100931.34
2022-09-24T07:56:44.265Z,100929.78
2022-09-24T07:59:11.162Z,100930.34
2022-09-24T08:01:38.363Z,100939.03
2022-09-24T08:04:06.095Z,100937.22
2022-09-24T08:06:39.554Z,100931.84
2022-09-24T08:09:08.345Z,100938.09
2022-09-24T08:11:35.617Z,100930.28
2022-09-24T08:14:02.845Z,100940.84
2022-09-24T08:16:29.893Z,100933.59
2022-09-24T08:18:56.844Z,100936.03
2022-09-24T08:21:23.733Z,100936.88
2022-09-24T08:23:50.634Z,100932.53
2022-09-24T08:26:18.148Z,100930.41
2022-09-24T08:28:45.050Z,100922.00
2022-09-24T08:31:13.544Z,100930.63
2022-09-24T08:33:40.931Z,100923.56
2022-09-24T08:36:10.047Z,100931.66
2022-09-24T08:38:37.142Z,100925.66
2022-09-24T08:41:13.413Z,100933.19
2022-09-24T08:44:00.751Z,100932.59
2022-09-24T08:47:09.895Z,100927.16
2022-09-24T08:49:50.922Z,100932.00
2022-09-24T08:53:01.763Z,100940.88
2022-09-24T08:55:39.685Z,100932.41
2022-09-24T08:58:17.751Z,100941.28
2022-09-24T09:01:13.156Z,100940.59
2022-09-24T09:03:49.813Z,100935.88
2022-09-24T09:06:57.733Z,100942.53
2022-09-24T09:09:44.346Z,100930.72
2022-09-24T09:12:27.914Z,100925.13
2022-09-24T09:15:03.635Z,100929.53
2022-09-24T09:17:56.591Z,100923.34
2022-09-24T09:20:52.665Z,100920.59
2022-09-24T09:23:40.049Z,100925.41
2022-09-24T09:26:11.461Z,100928.09
2022-09-24T09:28:38.674Z,100913.16
2022-09-24T09:31:26.206Z,100924.31
2022-09-24T09:34:29.700Z,100920.63
2022-09-24T09:37:30.538Z,100914.75
2022-09-24T09:40:22.564Z,100912.66
2022-09-24T09:42:50.852Z,100910.28
2022-09-24T09:45:42.187Z,100912.31
2022-09-24T09:48:20.328Z,100900.31
2022-09-24T09:50:50.894Z,100903.44
2022-09-24T09:53:27.748Z,100908.00
2022-09-24T09:56:07.380Z,100902.56
2022-09-24T09:58:37.950Z,100910.91
2022-09-24T10:01:12.696Z,100905.59
2022-09-24T10:03:54.628Z,100909.13
2022-09-24T10:06:35.220Z,100905.09
2022-09-24T10:09:22.627Z,100903.38
2022-09-24T10:11:49.625Z,100907.72
2022-09-24T10:14:19.143Z,100913.88
2022-09-24T10:16:54.140Z,100910.47
2022-09-24T10:19:27.500Z,100904.91
2022-09-24T10:21:58.277Z,100907.22
2022-09-24T10:24:27.514Z,100904.88
2022-09-24T10:26:55.693Z,100898.41
2022-09-24T10:29:52.413Z,100904.63
2022-09-24T10:32:23.694Z,100902.69
2022-09-24T10:35:06.329Z,100897.25
2022-09-24T10:37:33.200Z,100900.09
2022-09-24T10:40:15.548Z,100891.41
2022-09-24T10:42:42.695Z,100899.41
2022-09-24T10:45:14.239Z,100895.19
2022-09-24T10:48:05.622Z,100893.88
2022-09-24T10:50:58.846Z,100895.47
2022-09-24T10:54:13.237Z,100901.53
2022-09-24T10:56:46.940Z,100897.50
2022-09-24T10:59:28.256Z,100897.22
2022-09-24T11:02:13.271Z,100890.03
2022-09-24T11:04:58.982Z,100903.53
2022-09-24T11:07:38.459Z,100900.50
2022-09-24T11:10:23.101Z,100899.91
2022-09-24T11:13:17.492Z,100898.97
2022-09-24T11:16:25.796Z,100905.63
2022-09-24T11:19:03.193Z,100899.75
2022-09-24T11:21:53.417Z,100902.34
2022-09-24T11:24:57.882Z,100902.44
2022-09-24T11:27:49.673Z,100892.19
2022-09-24T11:30:32.323Z,100878.84
2022-09-24T11:33:22.807Z,100875.63
2022-09-24T11:36:26.801Z,100884.00
2022-09-24T11:39:24.815Z,100884.94
2022-09-24T11:42:16.454Z,100873.13
2022-09-24T11:45:19.703Z,100869.13
2022-09-24T11:48:02.136Z,100869.75
2022-09-24T11:51:21.013Z,100870.19
2022-09-24T11:54:07.784Z,100872.47
2022-09-24T11:56:41.298Z,100868.31
2022-09-24T11:59:30.116Z,100863.00
2022-09-24T12:02:25.233Z,100869.94
2022-09-24T12:05:07.484Z,100867.66
2022-09-24T12:07:46.061Z,100876.50
2022-09-24T12:10:35.670Z,100872.13
2022-09-24T12:13:16.008Z,100870.19
2022-09-24T12:16:07.374Z,100872.53
2022-09-24T12:18:50.488Z,100873.59
2022-09-24T12:21:24.074Z,100879.50
2022-09-24T12:24:02.245Z,100873.53
2022-09-24T12:26:31.267Z,100879.72
2022-09-24T12:29:54.233Z,100877.94
2022-09-24T12:32:53.791Z,100868.75
2022-09-24T12:36:02.133Z,100870.97
2022-09-24T12:38:48.475Z,100874.81
2022-09-24T12:41:38.315Z,100868.75
2022-09-24T12:44:11.178Z,100871.97
2022-09-24T12:46:47.207Z,100861.56
2022-09-24T12:49:29.994Z,100863.16
2022-09-24T12:52:05.238Z,100855.16
2022-09-24T12:54:38.226Z,100866.63
2022-09-24T12:57:26.383Z,100861.00
2022-09-24T12:59:59.961Z,100865.03
2022-09-24T13:02:45.156Z,100866.47
2022-09-24T13:05:27.084Z,100865.63
2022-09-24T13:08:22.865Z,100871.34
2022-09-24T13:11:00.490Z,100858.75
2022-09-24T13:13:31.717Z,100869.63
2022-09-24T13:16:06.039Z,100860.94
2022-09-24T13:18:36.296Z,100859.03
2022-09-24T13:21:08.894Z,100856.78
2022-09-24T13:23:38.678Z,100856.47
2022-09-24T13:26:09.170Z,100862.41
2022-09-24T13:28:48.823Z,100861.97
2022-09-24T13:31:23.897Z,100848.53
2022-09-24T13:34:20.077Z,100850.44
2022-09-24T13:37:02.633Z,100857.69
2022-09-24T13:39:50.360Z,100854.78
2022-09-24T13:42:47.977Z,100848.03
2022-09-24T13:45:20.948Z,100852.63
2022-09-24T13:48:04.373Z,100841.06
2022-09-24T13:50:36.581Z,100843.97
2022-09-24T13:53:26.044Z,100848.78
2022-09-24T13:55:59.719Z,100842.03
2022-09-24T13:58:29.178Z,100843.47
2022-09-24T14:00:59.747Z,100838.94
2022-09-24T14:03:32.817Z,100842.47
2022-09-24T14:06:13.729Z,100843.28
2022-09-24T14:08:46.917Z,100848.25
2022-09-24T14:11:18.888Z,100843.91
2022-09-24T14:13:46.216Z,100842.13
2022-09-24T14:16:26.454Z,100845.34
2022-09-24T14:19:16.850Z,100841.31
2022-09-24T14:21:50.421Z,100833.44
2022-09-24T14:24:42.533Z,100837.59
2022-09-24T14:27:15.554Z,100844.31
2022-09-24T14:30:00.953Z,100832.09
2022-09-24T14:33:03.679Z,100838.94
2022-09-24T14:35:33.769Z,100841.44
2022-09-24T14:38:12.697Z,100834.81
2022-09-24T14:40:44.936Z,100841.56
2022-09-24T14:46:37.393Z,100846.69
2022-09-24T14:49:26.413Z,100849.53
2022-09-24T14:52:03.927Z,100858.13
2022-09-24T14:54:40.536Z,100860.97
2022-09-24T14:57:11.370Z,100851.84
2022-09-24T14:59:41.702Z,100855.06
2022-09-24T15:02:31.080Z,100854.06
2022-09-24T15:05:06.720Z,100854.25
2022-09-24T15:07:35.637Z,100852.25
2022-09-24T15:10:05.398Z,100848.81
2022-09-24T15:12:37.579Z,100847.81
2022-09-24T15:15:16.795Z,100853.34
2022-09-24T15:17:47.437Z,100857.91
2022-09-24T15:20:14.848Z,100855.56
2022-09-24T15:22:41.652Z,100856.88
2022-09-24T15:25:10.167Z,100850.78
2022-09-24T15:27:42.452Z,100853.09
2022-09-24T15:30:27.777Z,100860.94
2022-09-24T15:32:55.054Z,100850.50
2022-09-24T15:35:22.149Z,100845.16
2022-09-24T15:37:49.580Z,100851.50
2022-09-24T15:40:25.536Z,100854.00
2022-09-24T15:42:52.999Z,100845.41
2022-09-24T15:45:23.364Z,100844.78
2022-09-24T15:47:51.548Z,100844.88
2022-09-24T15:50:21.166Z,100837.09
2022-09-24T15:52:53.939Z,100830.69
2022-09-24T15:55:22.383Z,100839.50
2022-09-24T15:57:49.502Z,100841.56
2022-09-24T16:00:19.896Z,100840.59
2022-09-24T16:02:52.307Z,100843.97
2022-09-24T16:05:20.103Z,100854.09
2022-09-24T16:07:47.519Z,100841.97
2022-09-24T16:10:15.773Z,100853.72
2022-09-24T16:12:43.467Z,100848.38
2022-09-24T16:15:16.429Z,100863.31
2022-09-24T16:17:43.625Z,100862.63
2022-09-24T16:20:10.531Z,100850.72
2022-09-24T16:22:37.847Z,100865.16
2022-09-24T16:25:05.705Z,100857.38
2022-09-24T16:27:34.403Z,100854.44
2022-09-24T16:30:02.588Z,100857.22
2022-09-24T16:32:29.805Z,100855.88
2022-09-24T16:34:56.981Z,100863.84
2022-09-24T16:37:25.167Z,100860.94
2022-09-24T16:39:52.734Z,100857.75
2022-09-24T16:42:21.617Z,100857.56
2022-09-24T16:44:48.453Z,100862.81
2022-09-24T16:47:17.525Z,100865.34
2022-09-24T16:49:44.726Z,100863.47
2022-09-24T16:52:11.568Z,100875.47
2022-09-24T16:54:38.607Z,100886.66
2022-09-24T16:57:06.239Z,100877.50
2022-09-24T16:59:36.978Z,100877.03
2022-09-24T17:02:04.037Z,100881.97
2022-09-24T17:04:31.313Z,100878.72
2022-09-24T17:06:59.362Z,100875.00
2022-09-24T17:09:44.687Z,100882.63
2022-09-24T17:12:11.843Z,100891.63
2022-09-24T17:14:38.964Z,100884.09
2022-09-24T17:17:06.647Z,100896.59
2022-09-24T17:19:33.883Z,100894.16
2022-09-24T17:22:00.732Z,100888.75
2022-09-24T17:24:28.134Z,100902.03
2022-09-24T17:26:56.532Z,100897.47
2022-09-24T17:29:30.378Z,100901.28
2022-09-24T17:31:59.135Z,100904.81
2022-09-24T17:34:26.196Z,100894.28
2022-09-24T17:36:53.070Z,100894.31
2022-09-24T17:39:20.867Z,100900.00
2022-09-24T17:41:47.657Z,100890.78
2022-09-24T17:44:17.699Z,100901.91
2022-09-24T17:46:44.779Z,100899.19
2022-09-24T17:49:12.294Z,100896.25
2022-09-24T17:51:39.352Z,100894.09
2022-09-24T17:54:13.808Z,100900.56
2022-09-24T17:56:41.712Z,100896.53
2022-09-24T17:59:11.168Z,100901.66
2022-09-24T18:01:40.741Z,100908.44
2022-09-24T18:04:15.518Z,100905.47
2022-09-24T18:06:45.061Z,100916.84
2022-09-24T18:09:14.598Z,100907.91
2022-09-24T18:11:52.374Z,100911.69
2022-09-24T18:14:22.290Z,100913.88
2022-09-24T18:16:50.238Z,100919.56
2022-09-24T18:19:17.951Z,100909.56
2022-09-24T18:21:46.752Z,100912.25
2022-09-24T18:24:14.395Z,100912.25
2022-09-24T18:26:41.507Z,100915.25
2022-09-24T18:29:17.573Z,100920.38
2022-09-24T18:31:45.273Z,100918.22
2022-09-24T18:34:15.381Z,100922.28
2022-09-24T18:36:44.848Z,100920.94
2022-09-24T18:39:15.855Z,100921.44
2022-09-24T18:41:44.841Z,100921.44
2022-09-24T18:44:12.110Z,100914.16
2022-09-24T18:46:39.436Z,100922.00
2022-09-24T18:49:06.671Z,100923.91
2022-09-24T18:51:37.004Z,100928.50
2022-09-24T18:54:08.685Z,100927.69
2022-09-24T18:56:36.370Z,100931.22
2022-09-24T18:59:14.511Z,100926.88
2022-09-24T19:01:42.942Z,100928.50
2022-09-24T19:04:11.971Z,100937.13
2022-09-24T19:06:42.179Z,100933.34
2022-09-24T19:09:13.447Z,100938.72
2022-09-24T19:11:42.196Z,100931.72
2022-09-24T19:14:11.980Z,100931.72
2022-09-24T19:16:39.785Z,100930.34
2022-09-24T19:19:06.992Z,100936.28
2022-09-24T19:21:34.265Z,100929.53
2022-09-24T19:24:01.613Z,100931.16
2022-09-24T19:26:31.991Z,100927.38
2022-09-24T19:28:59.506Z,100927.38
2022-09-24T19:31:32.925Z,100929.00
2022-09-24T19:34:03.262Z,100935.75
2022-09-24T19:36:31.089Z,100928.19
2022-09-24T19:38:58.116Z,100926.84
2022-09-24T19:41:26.566Z,100926.84
2022-09-24T19:43:57.052Z,100933.56
2022-09-24T19:46:27.032Z,100941.41
2022-09-24T19:48:56.296Z,100935.19
2022-09-24T19:51:30.166Z,100929.00
2022-09-24T19:54:04.833Z,100923.03
2022-09-24T19:56:32.047Z,100933.84
2022-09-24T19:59:01.456Z,100928.19
2022-09-24T20:01:31.725Z,100917.38
2022-09-24T20:04:03.327Z,100934.66
2022-09-24T20:06:33.639Z,100926.28
2022-09-24T20:09:01.001Z,100929.78
2022-09-24T20:11:29.515Z,100928.44
2022-09-24T20:13:56.717Z,100929.78
2022-09-24T20:19:17.832Z,100925.72
2022-09-24T20:21:44.974Z,100928.44
2022-09-24T20:24:12.499Z,100926.53
2022-09-24T20:26:57.862Z,100926.81
2022-09-24T20:29:24.914Z,100916.78
2022-09-24T20:31:55.309Z,100928.38
2022-09-24T20:34:36.172Z,100921.91
2022-09-24T20:37:06.352Z,100925.13
2022-09-24T20:39:33.358Z,100922.97
2022-09-24T20:42:06.062Z,100930.78
2022-09-24T20:44:37.218Z,100922.44
2022-09-24T20:47:05.305Z,100920.00
2022-09-24T20:49:33.176Z,100924.84
2022-09-24T20:52:02.928Z,100926.19
2022-09-24T20:54:29.794Z,100931.59
2022-09-24T20:56:57.791Z,100931.03
2022-09-24T20:59:26.850Z,100938.31
2022-09-24T21:01:54.725Z,100928.88
2022-09-24T21:04:22.538Z,100931.84
2022-09-24T21:06:49.499Z,100934.53
2022-09-24T21:09:17.217Z,100926.16
2022-09-24T21:11:44.227Z,100935.06
2022-09-24T21:14:12.590Z,100932.38
2022-09-24T21:16:39.463Z,100932.38
2022-09-24T21:19:08.285Z,100931.00
2022-09-24T21:21:38.235Z,100934.78
2022-09-24T21:24:09.606Z,100940.19
2022-09-24T21:26:38.812Z,100942.34
2022-09-24T21:29:16.882Z,100928.03
2022-09-24T21:31:46.250Z,100923.16
2022-09-24T21:34:20.835Z,100928.81
2022-09-24T21:36:47.866Z,100915.31
2022-09-24T21:39:22.951Z,100926.63
2022-09-24T21:41:52.501Z,100920.69
2022-09-24T21:44:19.753Z,100919.63
2022-09-24T21:46:47.751Z,100927.44
2022-09-24T21:49:16.872Z,100919.06
2022-09-24T21:51:44.519Z,100921.25
2022-09-24T21:54:16.128Z,100917.19
2022-09-24T21:56:43.504Z,100922.59
2022-09-24T21:59:29.395Z,100923.66
2022-09-24T22:01:56.333Z,100909.06
2022-09-24T22:04:23.643Z,100916.88
2022-09-24T22:06:50.999Z,100915.53
2022-09-24T22:09:18.812Z,100906.91
2022-09-24T22:11:46.267Z,100914.19
2022-09-24T22:14:13.922Z,100924.72
2022-09-24T22:16:41.056Z,100922.03
2022-09-24T22:19:09.253Z,100924.16
2022-09-24T22:21:36.940Z,100923.91
2022-09-24T22:24:05.319Z,100926.88
2022-09-24T22:26:33.079Z,100922.28
2022-09-24T22:29:00.562Z,100912.84
2022-09-24T22:31:27.995Z,100919.31
2022-09-24T22:34:13.918Z,100910.41
2022-09-24T22:36:41.046Z,100918.19
2022-09-24T22:39:09.397Z,100904.72
2022-09-24T22:41:42.920Z,100899.84
2022-09-24T22:44:11.998Z,100907.13
2022-09-24T22:46:41.611Z,100902.53
2022-09-24T22:49:11.010Z,100906.03
2022-09-24T22:51:39.226Z,100897.66
2022-09-24T22:54:07.857Z,100884.44
2022-09-24T22:56:35.463Z,100901.69
2022-09-24T22:59:03.378Z,100904.94
2022-09-24T23:01:42.926Z,100904.94
2022-09-24T23:04:14.685Z,100887.09
2022-09-24T23:06:43.455Z,100894.13
2022-09-24T23:09:10.835Z,100893.31
2022-09-24T23:11:37.796Z,100894.38
2022-09-24T23:14:14.739Z,100890.06
2022-09-24T23:16:42.803Z,100892.22
2022-09-24T23:19:20.423Z,100886.53
2022-09-24T23:21:47.463Z,100889.22
2022-09-24T23:24:19.736Z,100896.25
2022-09-24T23:26:47.343Z,100895.44
2022-09-24T23:29:15.462Z,100888.69
2022-09-24T23:31:44.966Z,100883.81
2022-09-24T23:34:13.574Z,100883.81
2022-09-24T23:36:40.739Z,100886.50
2022-09-24T23:39:07.732Z,100884.06
2022-09-24T23:41:34.799Z,100894.84
2022-09-24T23:44:01.940Z,100887.31
2022-09-24T23:46:29.178Z,100880.84
2022-09-24T23:48:56.719Z,100881.63
2022-09-24T23:51:23.930Z,100890.28
2022-09-24T23:53:52.822Z,100881.94
2022-09-24T23:56:20.628Z,100887.31
2022-09-24T23:58:52.952Z,100884.63
